createdAt,value
2018-09-06T00:00:11.508Z,15.67
2018-09-06T00:02:40.672Z,18.83
2018-09-06T00:05:09.503Z,24.40
2018-09-06T00:07:38.468Z,21.10
2018-09-06T00:10:07.512Z,19.97
2018-09-06T00:12:36.553Z,19.53
2018-09-06T00:15:06.105Z,25.33
2018-09-06T00:17:35.199Z,23.60
2018-09-06T00:20:04.392Z,18.13
2018-09-06T00:22:33.163Z,22.70
2018-09-06T00:25:01.909Z,21.67
2018-09-06T00:27:31.004Z,20.70
2018-09-06T00:30:00.656Z,18.93
2018-09-06T00:32:29.411Z,16.33
2018-09-06T00:34:58.509Z,18.63
2018-09-06T00:37:27.621Z,21.70
2018-09-06T00:39:57.110Z,23.93
2018-09-06T00:42:26.209Z,30.20
2018-09-06T00:44:55.356Z,24.80
2018-09-06T00:47:24.399Z,21.93
2018-09-06T00:49:53.397Z,27.07
2018-09-06T00:52:22.169Z,22.40
2018-09-06T00:54:50.970Z,22.63
2018-09-06T00:57:19.729Z,24.70
2018-09-06T00:59:48.748Z,20.83
2018-09-06T01:02:18.147Z,19.90
2018-09-06T01:04:47.153Z,26.57
2018-09-06T01:07:15.908Z,21.57
2018-09-06T01:09:45.254Z,21.70
2018-09-06T01:12:15.338Z,33.07
2018-09-06T01:14:45.301Z,21.23
2018-09-06T01:17:14.463Z,22.40
2018-09-06T01:19:44.083Z,21.60
2018-09-06T01:22:13.074Z,21.13
2018-09-06T01:24:41.838Z,22.60
2018-09-06T01:27:11.162Z,24.00
2018-09-06T01:29:40.608Z,20.97
2018-09-06T01:32:09.395Z,21.50
2018-09-06T01:34:38.185Z,20.87
2018-09-06T01:37:08.455Z,22.90
2018-09-06T01:39:38.021Z,28.87
2018-09-06T01:42:08.070Z,26.90
2018-09-06T01:44:37.047Z,22.30
2018-09-06T01:47:06.123Z,25.60
2018-09-06T01:49:34.893Z,29.50
2018-09-06T01:52:03.937Z,30.00
2018-09-06T01:54:33.115Z,23.87
2018-09-06T01:57:01.903Z,27.43
2018-09-06T01:59:36.786Z,30.30
2018-09-06T02:02:05.902Z,25.87
2018-09-06T02:04:35.375Z,43.17
2018-09-06T02:07:05.210Z,38.90
2018-09-06T02:09:34.405Z,26.10
2018-09-06T02:12:03.997Z,27.60
2018-09-06T02:14:33.110Z,31.43
2018-09-06T02:17:01.931Z,30.33
2018-09-06T02:19:31.000Z,29.33
2018-09-06T02:21:59.815Z,35.57
2018-09-06T02:24:28.890Z,26.50
2018-09-06T02:26:57.631Z,28.03
2018-09-06T02:29:26.644Z,28.23
2018-09-06T02:31:56.458Z,28.17
2018-09-06T02:34:25.267Z,28.43
2018-09-06T02:36:54.061Z,31.77
2018-09-06T02:39:23.258Z,28.50
2018-09-06T02:41:52.252Z,34.23
2018-09-06T02:44:21.371Z,34.13
2018-09-06T02:46:50.415Z,38.50
2018-09-06T02:49:23.246Z,25.87
2018-09-06T02:51:52.379Z,28.13
2018-09-06T02:54:21.152Z,27.93
2018-09-06T02:56:49.940Z,26.77
2018-09-06T02:59:18.975Z,29.77
2018-09-06T03:01:47.821Z,30.30
2018-09-06T03:04:16.603Z,31.07
2018-09-06T03:06:45.440Z,29.50
2018-09-06T03:09:14.547Z,30.57
2018-09-06T03:11:48.431Z,32.37
2018-09-06T03:14:19.291Z,26.30
2018-09-06T03:16:48.156Z,40.80
2018-09-06T03:19:17.410Z,37.60
2018-09-06T03:21:47.218Z,32.43
2018-09-06T03:24:16.369Z,33.70
2018-09-06T03:26:45.426Z,42.00
2018-09-06T03:29:14.568Z,36.70
2018-09-06T03:31:43.760Z,34.67
2018-09-06T03:34:13.539Z,33.27
2018-09-06T03:36:42.865Z,35.63
2018-09-06T03:39:12.209Z,44.00
2018-09-06T03:41:41.287Z,36.90
2018-09-06T03:44:10.087Z,32.93
2018-09-06T03:46:39.382Z,37.80
2018-09-06T03:49:08.248Z,34.73
2018-09-06T03:51:37.212Z,40.03
2018-09-06T03:54:06.241Z,31.97
2018-09-06T03:56:35.044Z,39.87
2018-09-06T03:59:03.815Z,36.40
2018-09-06T04:01:32.587Z,42.50
2018-09-06T04:04:01.324Z,37.83
2018-09-06T04:06:30.319Z,34.23
2018-09-06T04:08:59.401Z,33.43
2018-09-06T04:11:28.420Z,31.00
2018-09-06T04:13:58.059Z,31.97
2018-09-06T04:16:27.544Z,38.60
2018-09-06T04:18:56.527Z,36.07
2018-09-06T04:21:25.325Z,37.40
2018-09-06T04:23:54.159Z,32.90
2018-09-06T04:26:23.479Z,35.53
2018-09-06T04:28:52.252Z,36.17
2018-09-06T04:31:21.305Z,37.47
2018-09-06T04:33:50.255Z,36.33
2018-09-06T04:36:19.264Z,35.47
2018-09-06T04:38:48.010Z,34.10
2018-09-06T04:41:16.781Z,35.87
2018-09-06T04:43:45.973Z,35.97
2018-09-06T04:46:15.416Z,35.13
2018-09-06T04:48:44.422Z,33.77
2018-09-06T04:51:13.572Z,30.27
2018-09-06T04:53:42.376Z,33.67
2018-09-06T04:56:11.141Z,31.60
2018-09-06T04:58:40.231Z,32.30
2018-09-06T05:01:09.131Z,34.67
2018-09-06T05:03:37.858Z,35.53
2018-09-06T05:06:06.992Z,34.13
2018-09-06T05:08:35.841Z,35.67
2018-09-06T05:11:05.397Z,35.67
2018-09-06T05:13:34.315Z,40.87
2018-09-06T05:16:03.412Z,36.13
2018-09-06T05:18:32.165Z,38.87
2018-09-06T05:21:01.679Z,34.87
2018-09-06T05:23:30.462Z,40.03
2018-09-06T05:25:59.543Z,36.90
2018-09-06T05:28:28.881Z,42.93
2018-09-06T05:30:57.675Z,44.77
2018-09-06T05:33:26.643Z,39.43
2018-09-06T05:35:56.198Z,46.83
2018-09-06T05:38:25.949Z,41.17
2018-09-06T05:40:54.775Z,47.43
2018-09-06T05:43:23.566Z,42.97
2018-09-06T05:45:52.600Z,40.13
2018-09-06T05:48:21.655Z,53.67
2018-09-06T05:50:50.418Z,39.07
2018-09-06T05:53:19.561Z,46.00
2018-09-06T05:55:48.808Z,47.43
2018-09-06T05:58:17.863Z,41.13
2018-09-06T06:00:48.893Z,43.60
2018-09-06T06:03:17.988Z,45.93
2018-09-06T06:05:47.220Z,42.20
2018-09-06T06:08:27.047Z,40.20
2018-09-06T06:10:56.100Z,42.93
2018-09-06T06:13:24.958Z,36.57
2018-09-06T06:15:53.743Z,39.37
2018-09-06T06:18:23.239Z,37.97
2018-09-06T06:20:52.624Z,40.93
2018-09-06T06:23:21.611Z,44.80
2018-09-06T06:25:50.441Z,43.37
2018-09-06T06:28:19.202Z,44.73
2018-09-06T06:30:48.042Z,46.43
2018-09-06T06:33:16.843Z,46.63
2018-09-06T06:35:45.659Z,38.00
2018-09-06T06:38:14.954Z,44.07
2018-09-06T06:40:43.809Z,37.90
2018-09-06T06:43:12.616Z,37.77
2018-09-06T06:45:41.849Z,40.77
2018-09-06T06:48:10.832Z,39.80
2018-09-06T06:50:40.338Z,39.53
2018-09-06T06:53:09.495Z,41.43
2018-09-06T06:55:38.348Z,37.20
2018-09-06T06:58:07.529Z,33.33
2018-09-06T07:00:41.132Z,34.93
2018-09-06T07:03:11.518Z,50.00
2018-09-06T07:05:41.202Z,40.13
2018-09-06T07:08:10.417Z,34.50
2018-09-06T07:10:39.679Z,38.83
2018-09-06T07:13:09.272Z,35.40
2018-09-06T07:15:38.495Z,39.03
2018-09-06T07:18:07.764Z,39.13
2018-09-06T07:20:36.503Z,37.77
2018-09-06T07:23:05.592Z,34.13
2018-09-06T07:25:34.396Z,40.50
2018-09-06T07:28:03.198Z,34.30
2018-09-06T07:30:31.936Z,35.50
2018-09-06T07:33:00.912Z,32.47
2018-09-06T07:35:29.901Z,35.40
2018-09-06T07:37:58.865Z,40.87
2018-09-06T07:40:27.796Z,32.33
2018-09-06T07:42:56.856Z,31.77
2018-09-06T07:45:26.150Z,34.70
2018-09-06T07:47:55.609Z,35.83
2018-09-06T07:50:24.692Z,31.77
2018-09-06T07:52:53.492Z,39.10
2018-09-06T07:55:23.147Z,33.60
2018-09-06T07:57:52.147Z,40.07
2018-09-06T08:00:20.858Z,32.50
2018-09-06T08:02:49.613Z,30.43
2018-09-06T08:05:18.402Z,36.30
2018-09-06T08:07:47.140Z,33.30
2018-09-06T08:10:16.174Z,34.30
2018-09-06T08:12:44.953Z,40.13
2018-09-06T08:15:14.470Z,31.50
2018-09-06T08:17:43.305Z,34.23
2018-09-06T08:20:12.671Z,33.50
2018-09-06T08:22:41.763Z,31.90
2018-09-06T08:25:11.199Z,34.90
2018-09-06T08:27:39.994Z,32.70
2018-09-06T08:30:09.359Z,31.03
2018-09-06T08:32:38.101Z,46.93
2018-09-06T08:35:06.834Z,30.60
2018-09-06T08:37:35.570Z,29.17
2018-09-06T08:40:04.322Z,46.73
2018-09-06T08:42:33.155Z,32.00
2018-09-06T08:45:02.338Z,33.83
2018-09-06T08:47:31.457Z,36.00
2018-09-06T08:50:00.935Z,32.70
2018-09-06T08:52:29.676Z,36.00
2018-09-06T08:54:58.389Z,31.90
2018-09-06T08:57:27.441Z,30.03
2018-09-06T08:59:56.227Z,29.63
2018-09-06T09:02:25.372Z,31.40
2018-09-06T09:04:54.478Z,32.63
2018-09-06T09:07:23.534Z,31.10
2018-09-06T09:09:52.909Z,33.47
2018-09-06T09:12:21.657Z,34.83
2018-09-06T09:14:50.446Z,30.63
2018-09-06T09:17:19.236Z,32.20
2018-09-06T09:19:48.239Z,30.87
2018-09-06T09:22:17.311Z,35.10
2018-09-06T09:24:46.351Z,34.80
2018-09-06T09:27:15.037Z,35.67
2018-09-06T09:29:43.790Z,32.73
2018-09-06T09:32:12.590Z,32.73
2018-09-06T09:34:42.326Z,34.63
2018-09-06T09:37:11.275Z,37.90
2018-09-06T09:39:40.143Z,40.07
2018-09-06T09:42:08.902Z,38.40
2018-09-06T09:44:37.931Z,38.27
2018-09-06T09:49:38.195Z,43.33
2018-09-06T09:52:06.921Z,39.90
2018-09-06T09:54:36.061Z,36.90
2018-09-06T09:57:05.084Z,35.73
2018-09-06T09:59:33.854Z,39.43
2018-09-06T10:02:08.217Z,38.67
2018-09-06T10:04:44.166Z,40.27
2018-09-06T10:07:18.323Z,39.03
2018-09-06T10:09:47.056Z,42.90
2018-09-06T10:12:15.899Z,47.50
2018-09-06T10:14:44.983Z,46.07
2018-09-06T10:17:14.415Z,39.37
2018-09-06T10:19:43.494Z,38.30
2018-09-06T10:22:12.561Z,42.73
2018-09-06T10:24:41.331Z,43.23
2018-09-06T10:27:10.094Z,33.53
2018-09-06T10:29:38.878Z,36.40
2018-09-06T10:32:08.069Z,34.93
2018-09-06T10:34:37.374Z,39.30
2018-09-06T10:37:06.463Z,35.43
2018-09-06T10:39:35.553Z,36.20
2018-09-06T10:42:04.671Z,37.43
2018-09-06T10:44:33.605Z,39.23
2018-09-06T10:47:02.755Z,34.03
2018-09-06T10:49:31.575Z,36.67
2018-09-06T10:52:00.319Z,40.87
2018-09-06T10:54:29.753Z,39.90
2018-09-06T10:56:58.523Z,46.90
2018-09-06T10:59:27.308Z,44.10
2018-09-06T11:01:56.423Z,37.13
2018-09-06T11:04:25.474Z,38.50
2018-09-06T11:06:55.068Z,35.80
2018-09-06T11:09:24.110Z,37.63
2018-09-06T11:11:52.896Z,36.80
2018-09-06T11:14:21.670Z,39.80
2018-09-06T11:16:50.446Z,38.63
2018-09-06T11:19:19.434Z,41.10
2018-09-06T11:21:48.324Z,34.20
2018-09-06T11:24:17.239Z,33.63
2018-09-06T11:26:46.022Z,35.93
2018-09-06T11:29:15.159Z,37.03
2018-09-06T11:31:43.961Z,36.97
2018-09-06T11:34:13.059Z,40.23
2018-09-06T11:36:42.086Z,45.37
2018-09-06T11:39:11.103Z,43.30
2018-09-06T11:41:40.288Z,50.57
2018-09-06T11:44:09.708Z,41.20
2018-09-06T11:46:38.727Z,44.93
2018-09-06T11:49:07.756Z,45.23
2018-09-06T11:51:36.628Z,47.40
2018-09-06T11:54:05.634Z,43.77
2018-09-06T11:56:35.797Z,39.90
2018-09-06T11:59:04.592Z,42.63
2018-09-06T12:01:33.947Z,44.83
2018-09-06T12:04:03.127Z,42.83
2018-09-06T12:06:31.863Z,45.40
2018-09-06T12:09:00.808Z,54.30
2018-09-06T12:11:29.882Z,42.33
2018-09-06T12:13:58.619Z,41.20
2018-09-06T12:16:27.400Z,40.43
2018-09-06T12:18:56.514Z,47.70
2018-09-06T12:21:25.751Z,38.53
2018-09-06T12:23:54.939Z,43.50
2018-09-06T12:26:23.687Z,44.23
2018-09-06T12:28:52.843Z,49.20
2018-09-06T12:31:21.843Z,44.00
2018-09-06T12:33:50.684Z,46.57
2018-09-06T12:36:19.656Z,42.93
2018-09-06T12:38:48.488Z,41.13
2018-09-06T12:41:17.215Z,47.97
2018-09-06T12:43:46.380Z,40.60
2018-09-06T12:46:15.128Z,48.03
2018-09-06T12:48:44.023Z,51.00
2018-09-06T12:51:12.811Z,42.30
2018-09-06T12:53:41.549Z,41.77
2018-09-06T12:56:10.289Z,46.70
2018-09-06T12:58:40.022Z,44.70
2018-09-06T13:01:08.843Z,38.93
2018-09-06T13:03:37.828Z,50.87
2018-09-06T13:06:07.227Z,41.90
2018-09-06T13:08:36.910Z,44.37
2018-09-06T13:11:06.129Z,38.43
2018-09-06T13:13:34.931Z,43.60
2018-09-06T13:16:03.709Z,44.80
2018-09-06T13:18:33.027Z,42.87
2018-09-06T13:21:02.083Z,44.90
2018-09-06T13:23:30.918Z,47.10
2018-09-06T13:25:59.666Z,52.37
2018-09-06T13:28:28.936Z,41.07
2018-09-06T13:30:58.190Z,49.30
2018-09-06T13:33:27.631Z,40.20
2018-09-06T13:35:56.967Z,45.50
2018-09-06T13:38:26.376Z,42.97
2018-09-06T13:40:55.689Z,42.93
2018-09-06T13:43:24.519Z,41.47
2018-09-06T13:45:53.617Z,41.80
2018-09-06T13:48:23.088Z,52.27
2018-09-06T13:50:51.806Z,39.10
2018-09-06T13:53:20.569Z,49.43
2018-09-06T13:55:49.506Z,38.70
2018-09-06T13:58:18.291Z,41.37
2018-09-06T14:00:47.323Z,42.90
2018-09-06T14:03:16.153Z,41.97
2018-09-06T14:05:44.903Z,46.63
2018-09-06T14:08:13.651Z,40.97
2018-09-06T14:10:42.419Z,47.73
2018-09-06T14:13:11.838Z,42.87
2018-09-06T14:15:40.870Z,39.40
2018-09-06T14:18:10.043Z,37.60
2018-09-06T14:20:38.875Z,45.67
2018-09-06T14:23:07.718Z,42.20
2018-09-06T14:25:36.869Z,38.20
2018-09-06T14:28:06.151Z,40.07
2018-09-06T14:30:35.134Z,47.73
2018-09-06T14:33:03.938Z,44.13
2018-09-06T14:35:33.035Z,46.97
2018-09-06T14:38:01.876Z,39.73
2018-09-06T14:40:30.658Z,39.23
2018-09-06T14:43:06.110Z,40.87
2018-09-06T14:45:35.181Z,36.13
2018-09-06T14:48:04.170Z,39.97
2018-09-06T14:50:32.887Z,38.20
2018-09-06T14:53:01.816Z,32.10
2018-09-06T14:55:30.843Z,36.17
2018-09-06T14:57:59.603Z,35.00
2018-09-06T15:00:28.638Z,35.67
2018-09-06T15:02:57.406Z,32.27
2018-09-06T15:05:26.634Z,34.57
2018-09-06T15:07:55.416Z,34.90
2018-09-06T15:10:24.183Z,36.00
2018-09-06T15:12:53.685Z,35.70
2018-09-06T15:15:22.471Z,31.33
2018-09-06T15:17:51.264Z,31.50
2018-09-06T15:20:27.379Z,35.27
2018-09-06T15:22:56.391Z,35.10
2018-09-06T15:25:25.166Z,40.27
2018-09-06T15:27:54.553Z,39.20
2018-09-06T15:30:23.598Z,33.53
2018-09-06T15:32:52.696Z,42.70
2018-09-06T15:35:21.469Z,38.17
2018-09-06T15:37:50.612Z,36.73
2018-09-06T15:40:22.525Z,32.60
2018-09-06T15:42:51.302Z,33.80
2018-09-06T15:45:20.028Z,35.80
2018-09-06T15:47:48.838Z,32.10
2018-09-06T15:50:17.691Z,32.47
2018-09-06T15:52:46.669Z,35.03
2018-09-06T15:55:15.743Z,38.23
2018-09-06T15:57:44.568Z,33.10
2018-09-06T16:00:13.294Z,37.87
2018-09-06T16:02:41.984Z,33.50
2018-09-06T16:05:11.418Z,42.47
2018-09-06T16:07:40.213Z,39.13
2018-09-06T16:10:09.210Z,29.07
2018-09-06T16:12:38.314Z,43.63
2018-09-06T16:15:07.083Z,36.00
2018-09-06T16:17:36.166Z,37.70
2018-09-06T16:20:04.939Z,34.60
2018-09-06T16:22:33.853Z,41.77
2018-09-06T16:25:02.638Z,35.63
2018-09-06T16:27:31.391Z,39.63
2018-09-06T16:30:00.232Z,40.00
2018-09-06T16:32:29.531Z,39.40
2018-09-06T16:34:59.058Z,38.00
2018-09-06T16:37:27.800Z,39.00
2018-09-06T16:39:57.548Z,35.37
2018-09-06T16:42:26.332Z,42.03
2018-09-06T16:44:55.347Z,35.90
2018-09-06T16:47:24.736Z,42.23
2018-09-06T16:49:53.892Z,41.17
2018-09-06T16:52:23.053Z,44.70
2018-09-06T16:54:51.781Z,43.77
2018-09-06T16:57:20.829Z,42.73
2018-09-06T16:59:49.891Z,42.70
2018-09-06T17:02:19.156Z,46.30
2018-09-06T17:04:48.213Z,44.40
2018-09-06T17:07:17.291Z,42.53
2018-09-06T17:09:46.380Z,40.60
2018-09-06T17:12:15.103Z,40.47
2018-09-06T17:14:44.248Z,46.63
2018-09-06T17:17:13.228Z,46.57
2018-09-06T17:19:42.771Z,51.33
2018-09-06T17:22:11.782Z,55.87
2018-09-06T17:24:40.863Z,50.07
2018-09-06T17:27:09.623Z,34.67
2018-09-06T17:29:38.325Z,55.43
2018-09-06T17:32:08.739Z,45.53
2018-09-06T17:34:37.967Z,43.30
2018-09-06T17:37:06.786Z,44.90
2018-09-06T17:39:35.572Z,41.43
2018-09-06T17:42:04.710Z,63.30
2018-09-06T17:44:33.661Z,38.13
2018-09-06T17:47:02.686Z,44.93
2018-09-06T17:49:31.848Z,32.07
2018-09-06T17:52:01.128Z,32.83
2018-09-06T17:54:30.256Z,30.50
2018-09-06T17:56:59.318Z,31.77
2018-09-06T17:59:28.405Z,30.73
2018-09-06T18:01:57.183Z,31.10
2018-09-06T18:04:26.201Z,32.10
2018-09-06T18:06:55.577Z,31.87
2018-09-06T18:09:24.534Z,31.90
2018-09-06T18:11:53.852Z,34.30
2018-09-06T18:14:23.223Z,28.97
2018-09-06T18:16:52.014Z,28.30
2018-09-06T18:19:20.971Z,32.40
2018-09-06T18:21:49.702Z,33.90
2018-09-06T18:24:18.495Z,31.40
2018-09-06T18:26:47.490Z,32.73
2018-09-06T18:29:16.642Z,32.97
2018-09-06T18:31:45.436Z,39.07
2018-09-06T18:34:14.147Z,36.23
2018-09-06T18:36:43.128Z,35.60
2018-09-06T18:39:11.886Z,38.90
2018-09-06T18:41:40.865Z,35.93
2018-09-06T18:44:10.039Z,37.07
2018-09-06T18:46:39.150Z,32.80
2018-09-06T18:49:08.188Z,37.10
2018-09-06T18:51:37.259Z,37.47
2018-09-06T18:54:06.317Z,38.90
2018-09-06T18:56:35.108Z,41.93
2018-09-06T18:59:03.826Z,40.77
2018-09-06T19:01:32.694Z,39.20
2018-09-06T19:04:01.461Z,35.53
2018-09-06T19:06:30.201Z,36.93
2018-09-06T19:08:59.563Z,41.47
2018-09-06T19:11:28.486Z,35.70
2018-09-06T19:13:57.477Z,41.40
2018-09-06T19:16:26.339Z,41.43
2018-09-06T19:18:55.074Z,41.70
2018-09-06T19:21:24.393Z,43.87
2018-09-06T19:23:56.671Z,40.93
2018-09-06T19:26:25.825Z,45.10
2018-09-06T19:28:54.688Z,44.47
2018-09-06T19:31:23.721Z,46.97
2018-09-06T19:33:53.128Z,43.80
2018-09-06T19:36:23.284Z,42.27
2018-09-06T19:38:52.068Z,45.80
2018-09-06T19:41:20.861Z,46.13
2018-09-06T19:43:49.631Z,39.20
2018-09-06T19:46:18.890Z,46.77
2018-09-06T19:48:47.654Z,44.63
2018-09-06T19:51:16.702Z,42.40
2018-09-06T19:53:45.732Z,41.33
2018-09-06T19:56:14.478Z,43.97
2018-09-06T19:58:43.936Z,49.67
2018-09-06T20:01:14.312Z,39.90
2018-09-06T20:03:43.155Z,39.23
2018-09-06T20:06:12.194Z,44.37
2018-09-06T20:08:40.955Z,53.40
2018-09-06T20:11:10.313Z,39.27
2018-09-06T20:13:39.077Z,42.97
2018-09-06T20:16:08.135Z,46.50
2018-09-06T20:18:37.292Z,45.17
2018-09-06T20:21:06.792Z,40.00
2018-09-06T20:23:35.872Z,40.77
2018-09-06T20:26:04.687Z,37.60
2018-09-06T20:28:33.930Z,32.87
2018-09-06T20:31:02.712Z,37.00
2018-09-06T20:33:32.375Z,43.13
2018-09-06T20:36:01.574Z,37.60
2018-09-06T20:38:30.801Z,31.30
2018-09-06T20:41:00.553Z,38.63
2018-09-06T20:43:29.598Z,39.70
2018-09-06T20:45:58.799Z,33.73
2018-09-06T20:48:28.041Z,35.97
2018-09-06T20:50:57.105Z,34.03
2018-09-06T20:53:26.196Z,30.97
2018-09-06T20:55:54.938Z,30.10
2018-09-06T20:58:23.657Z,30.10
2018-09-06T21:00:52.550Z,29.63
2018-09-06T21:03:21.358Z,29.40
2018-09-06T21:05:50.265Z,31.87
2018-09-06T21:08:19.343Z,30.33
2018-09-06T21:10:48.630Z,26.47
2018-09-06T21:13:17.388Z,32.53
2018-09-06T21:15:46.213Z,34.67
2018-09-06T21:18:15.623Z,34.10
2018-09-06T21:20:45.057Z,29.77
2018-09-06T21:23:13.802Z,33.33
2018-09-06T21:25:42.575Z,26.60
2018-09-06T21:28:12.595Z,28.97
2018-09-06T21:30:41.809Z,27.50
2018-09-06T21:33:11.100Z,27.57
2018-09-06T21:35:39.957Z,27.43
2018-09-06T21:38:08.767Z,29.57
2018-09-06T21:40:37.504Z,27.83
2018-09-06T21:43:06.771Z,24.13
2018-09-06T21:45:35.547Z,26.30
2018-09-06T21:48:05.062Z,27.57
2018-09-06T21:50:33.804Z,26.03
2018-09-06T21:53:03.153Z,19.60
2018-09-06T21:55:33.373Z,23.23
2018-09-06T21:58:02.180Z,23.83
2018-09-06T22:00:32.113Z,20.77
2018-09-06T22:03:06.864Z,22.10
2018-09-06T22:05:35.989Z,25.90
2018-09-06T22:08:04.819Z,21.53
2018-09-06T22:10:33.689Z,22.67
2018-09-06T22:13:02.476Z,19.47
2018-09-06T22:15:31.984Z,17.60
2018-09-06T22:18:01.022Z,20.33
2018-09-06T22:20:29.879Z,19.10
2018-09-06T22:22:59.097Z,23.30
2018-09-06T22:25:27.856Z,23.70
2018-09-06T22:27:57.013Z,18.17
2018-09-06T22:30:25.785Z,17.40
2018-09-06T22:32:54.571Z,18.00
2018-09-06T22:35:23.387Z,16.83
2018-09-06T22:37:52.911Z,13.20
2018-09-06T22:40:22.702Z,20.93
2018-09-06T22:42:51.950Z,16.10
2018-09-06T22:45:21.118Z,15.67
2018-09-06T22:47:49.925Z,13.93
2018-09-06T22:50:18.662Z,22.27
2018-09-06T22:52:47.421Z,14.20
2018-09-06T22:55:16.211Z,13.80
2018-09-06T22:57:45.287Z,17.37
2018-09-06T23:00:16.222Z,17.97
2018-09-06T23:02:50.599Z,13.97
2018-09-06T23:05:19.649Z,14.93
2018-09-06T23:07:48.789Z,15.83
2018-09-06T23:10:18.041Z,16.13
2018-09-06T23:12:46.807Z,16.70
2018-09-06T23:15:15.666Z,10.47
2018-09-06T23:17:44.430Z,17.37
2018-09-06T23:20:13.187Z,18.87
2018-09-06T23:22:42.093Z,13.23
2018-09-06T23:25:10.940Z,19.00
2018-09-06T23:27:40.875Z,18.60
2018-09-06T23:30:09.816Z,12.50
2018-09-06T23:32:38.833Z,11.20
2018-09-06T23:35:07.738Z,13.83
2018-09-06T23:37:36.513Z,11.80
2018-09-06T23:40:06.223Z,13.67
2018-09-06T23:42:35.276Z,11.30
2018-09-06T23:45:04.443Z,13.33
2018-09-06T23:47:33.521Z,13.93
2018-09-06T23:50:02.305Z,13.03
2018-09-06T23:52:31.311Z,13.40
2018-09-06T23:55:00.399Z,11.90
2018-09-06T23:57:29.261Z,15.30
2018-09-06T23:59:58.383Z,13.17
